Station: EBSP - 28/05/2022 12:21Z (il y a 22 minutes)
EBSP 281220Z AUTO 31007KT 280V350 9999 // SCT036/// BKN045/// 12/03 Q1021
Vent du 310º - 7 kt (vent de direction variable de 280º à 350º)
Visibilité > 10 km
Ciel 50% couvert à 3600 pieds - Ciel 75% couvert à 4500 pieds
Température: +12ºC - Point de rosée: +03ºC - QNH: 1021 hPa